• Join FlightAware (Why Join?)
  • Login
  • US Flag 
Rudolph Flight #1: Arrived! 
08:14PM EST


 

Airport Tracker/Info


-or-


 

Live Flight TrackerFlight Track Log ✈ LMO7600 ✈ 06-May-2013 ✈ KBOS - KTEB

Flight Track Log - Related Links

Times and Time Zones

All times are in EDT time to prevent confusion due to time zone crossing. See the LMO7600 flight status page for this flight to view local times or setup timezone preferences in your user account.

Time Position Orientation Groundspeed Altitude Reporting Facility
EDT Latitude Longitude Course Direction KTS MPH feet Rate Location/Type
03:45PM 42.3667 -71.0000 90° East 98 113 800  Level KA90
03:48PM 42.3500 -71.1527 270° West  Level FlightAware Approximate
03:49PM 42.3667 -70.7289 251° West 218 251 11,200  Level Boston Center
03:50PM 42.3006 -70.7783 209° Southwest 167 192 13,800 900 Climbing Boston Center
03:52PM 42.2449 -70.9111 241° Southwest  Level Estimated
03:52PM 42.2347 -70.9819 241° Southwest 261 300 14,000  Level Boston Center
03:54PM 42.2442 -71.2539 273° West 361 415 15,200 660 Climbing Boston Center
03:55PM 42.3055 -71.9282 251° West  Level FlightAware Approximate
03:55PM 42.2389 -71.3661 266° West 355 409 16,000  Level Boston Center
03:56PM 42.2319 -71.5147 266° West 355 409 16,000  Level Boston Center
03:57PM 42.2247 -71.6522 266° West 370 426 16,000 -60 Level Boston Center
03:59PM 42.1625 -71.7654 270° West  Level Estimated
03:59PM 42.2075 -71.9383 270° West 386 444 15,900  Level Boston Center
04:00PM 42.2017 -72.0672 267° West 393 452 15,900  Level Boston Center
04:01PM 42.1917 -72.2272 265° West 387 445 15,900  Level Boston Center
04:02PM 42.1836 -72.3672 266° West 387 445 16,000  Climbing Boston Center
04:03PM 42.1753 -72.5072 265° West 387 445 16,000  Level Boston Center
04:04PM 42.1667 -72.6503 265° West 387 445 16,000  Level Boston Center
04:05PM 42.1581 -72.7958 265° West 387 445 16,000  Level Boston Center
04:06PM 42.1492 -72.9358 265° West 387 445 16,000  Level Boston Center
04:07PM 42.1381 -73.0783 264° West 387 445 16,000  Level Boston Center
04:09PM 42.1219 -73.2206 264° West  Level FlightAware Approximate
04:09PM 42.1214 -73.3694 264° West 387 445 16,000  Level Boston Center
04:11PM 42.1009 -73.5105 259° West  Level FlightAware Approximate
04:11PM 42.0981 -73.6406 259° West 387 445 16,000  Level Boston Center
04:13PM 42.0858 -73.7784 236° Southwest  Level FlightAware Approximate
04:13PM 42.0758 -73.9392 236° Southwest 388 447 16,000  Level Boston Center
04:15PM 42.0595 -74.0820 262° West  Level FlightAware Approximate
04:15PM 42.0550 -74.2183 262° West 382 440 14,300  Level Boston Center
04:17PM 42.0022 -74.3374 206° Southwest  Level FlightAware Approximate
04:17PM 41.9333 -74.4019 206° Southwest 340 391 11,500  Level Boston Center
04:18PM 41.8531 -74.4608 209° Southwest 340 391 10,000 -780 Descending Boston Center
04:19PM 41.7769 -74.5142 208° Southwest 318 366 10,000 -360 Level Boston Center
04:20PM 41.6994 -74.5367 192° South 318 366 9,300 -1,440 Descending Boston Center
04:21PM 41.6158 -74.5533 188° South 301 346 7,200 -1,680 Descending Boston Center
04:22PM 41.5508 -74.5650 188° South 275 316 6,000 -600 Descending Boston Center
04:23PM 41.4714 -74.5789 187° South 270 311 6,000 -60 Level Boston Center
04:25PM 41.3667 -74.6167 195° South 261 300 5,900 -540 Descending New York TRACON
04:26PM 41.3000 -74.6167 180° South 232 267 4,800 -960 Descending New York TRACON
04:27PM 41.2667 -74.5500 124° Southeast 204 235 4,000 -420 Descending New York TRACON
04:28PM 41.2333 -74.4833 124° Southeast 232 267 4,000  Level New York TRACON
04:29PM 41.2000 -74.4000 118° Southeast 237 273 4,000 -360 Level New York TRACON
04:30PM 41.1667 -74.3333 124° Southeast 221 254 3,300 -420 Descending New York TRACON
04:32PM 41.0423 -74.2259 147° Southeast  Level Estimated
04:34PM 41.0333 -74.1000 147° Southeast 190 219 2,000  Level New York TRACON
04:35PM 40.9833 -74.0500 143° Southeast 201 231 2,000 -180 Level New York TRACON
04:36PM 40.9500 -74.0500 180° South 175 201 1,700 -540 Descending New York TRACON
04:37PM 40.9000 -74.0500 180° South 128 147 1,000 -660 Descending New York TRACON
04:38PM 40.8667 -74.0500 180° South 123 142 400 -600 Descending New York TRACON
04:39PM 40.8501 -74.0608 147° Southeast  Level Estimated